createdAt,value
2022-12-08T00:05:14.219Z,18.13
2022-12-08T00:15:15.766Z,18.10
2022-12-08T00:25:17.318Z,18.63
2022-12-08T00:35:18.869Z,17.83
2022-12-08T00:45:20.439Z,17.90
2022-12-08T00:55:21.968Z,16.77
2022-12-08T01:05:23.535Z,18.77
2022-12-08T01:15:25.085Z,17.93
2022-12-08T01:25:26.640Z,19.83
2022-12-08T01:35:28.193Z,19.42
2022-12-08T01:45:31.477Z,20.07
2022-12-08T01:55:38.654Z,18.67
2022-12-08T02:05:41.119Z,21.97
2022-12-08T02:15:56.629Z,21.67
2022-12-08T02:26:16.888Z,23.10
2022-12-08T02:36:42.746Z,24.07
2022-12-08T02:47:13.241Z,24.95
2022-12-08T02:57:20.942Z,24.63
2022-12-08T03:07:22.456Z,23.83
2022-12-08T03:17:27.901Z,25.00
2022-12-08T03:27:31.900Z,24.90
2022-12-08T03:37:36.158Z,24.90
2022-12-08T03:47:38.279Z,26.48
2022-12-08T03:57:40.007Z,27.67
2022-12-08T04:07:41.584Z,29.20
2022-12-08T04:17:43.129Z,29.10
2022-12-08T04:27:44.653Z,28.83
2022-12-08T04:37:46.164Z,29.90
2022-12-08T04:47:47.728Z,27.55
2022-12-08T04:57:49.733Z,28.77
2022-12-08T05:07:51.325Z,28.37
2022-12-08T05:17:53.117Z,27.98
2022-12-08T05:28:06.163Z,26.70
2022-12-08T05:38:16.187Z,29.90
2022-12-08T05:48:17.722Z,27.60
2022-12-08T05:58:20.978Z,28.93
2022-12-08T06:08:22.568Z,29.13
2022-12-08T06:18:27.217Z,28.08
2022-12-08T06:28:33.311Z,29.20
2022-12-08T06:38:38.099Z,31.77
2022-12-08T06:48:42.094Z,31.45
2022-12-08T06:58:49.022Z,30.90
2022-12-08T07:08:53.907Z,31.00
2022-12-08T07:18:55.445Z,31.98
2022-12-08T07:28:56.996Z,32.20
2022-12-08T07:38:58.819Z,31.37
2022-12-08T07:49:00.411Z,30.70
2022-12-08T07:59:01.946Z,30.90
2022-12-08T08:09:04.010Z,30.97
2022-12-08T08:19:05.513Z,33.60
2022-12-08T08:29:07.033Z,28.93
2022-12-08T08:39:09.860Z,29.27
2022-12-08T08:49:11.385Z,27.90
2022-12-08T08:59:12.941Z,28.93
2022-12-08T09:09:14.593Z,28.40
2022-12-08T09:19:16.302Z,30.50
2022-12-08T09:29:17.867Z,31.43
2022-12-08T09:39:19.621Z,29.43
2022-12-08T09:49:25.305Z,30.83
2022-12-08T09:59:32.921Z,30.27
2022-12-08T10:10:05.472Z,29.97
2022-12-08T10:20:17.240Z,30.27
2022-12-08T10:30:20.069Z,29.40
2022-12-08T10:40:21.575Z,30.17
2022-12-08T10:50:33.448Z,32.20
2022-12-08T11:00:39.276Z,31.63
2022-12-08T11:10:47.479Z,29.38
2022-12-08T11:20:57.830Z,29.47
2022-12-08T11:31:22.359Z,26.57
2022-12-08T11:41:36.733Z,26.53
2022-12-08T11:51:48.133Z,26.37
2022-12-08T12:01:50.179Z,26.17
2022-12-08T12:12:22.764Z,27.03
2022-12-08T12:22:25.592Z,26.77
2022-12-08T12:32:41.389Z,27.45
2022-12-08T12:42:45.974Z,26.27
2022-12-08T12:52:48.331Z,26.30
2022-12-08T13:02:53.005Z,25.63
2022-12-08T13:13:09.725Z,25.37
2022-12-08T13:23:27.352Z,26.65
2022-12-08T13:33:40.210Z,25.50
2022-12-08T13:44:10.220Z,25.17
2022-12-08T14:15:07.908Z,25.60
2022-12-08T14:25:15.346Z,23.30
2022-12-08T14:35:28.296Z,23.63
2022-12-08T14:45:29.832Z,25.20
2022-12-08T14:55:36.310Z,25.10
2022-12-08T15:05:39.772Z,24.30
2022-12-08T15:15:55.697Z,26.27
2022-12-08T15:25:58.441Z,27.10
2022-12-08T15:35:59.984Z,26.83
2022-12-08T15:46:01.638Z,27.07
2022-12-08T16:07:19.251Z,28.88
2022-12-08T16:16:53.788Z,27.17
2022-12-08T16:27:58.505Z,25.63
2022-12-08T16:37:18.817Z,27.92
2022-12-08T16:47:20.327Z,27.90
2022-12-08T16:57:21.894Z,27.27
2022-12-08T17:07:23.470Z,25.63
2022-12-08T17:17:25.006Z,25.17
2022-12-08T17:27:26.700Z,22.75
2022-12-08T17:37:28.253Z,23.93
2022-12-08T17:47:29.782Z,24.47
2022-12-08T17:57:31.321Z,22.27
2022-12-08T18:07:32.949Z,27.77
2022-12-08T18:17:34.578Z,29.43
2022-12-08T18:27:41.492Z,30.27
2022-12-08T18:37:45.843Z,28.07
2022-12-08T18:47:49.301Z,27.00
2022-12-08T18:57:50.799Z,30.53
2022-12-08T19:07:52.456Z,28.50
2022-12-08T19:17:54.070Z,27.65
2022-12-08T19:27:55.629Z,26.23
2022-12-08T19:37:57.172Z,23.37
2022-12-08T19:47:58.719Z,24.13
2022-12-08T19:58:00.271Z,26.00
2022-12-08T20:08:02.234Z,25.35
2022-12-08T20:18:04.029Z,24.37
2022-12-08T20:28:05.659Z,26.77
2022-12-08T20:38:07.413Z,25.02
2022-12-08T20:48:09.092Z,25.83
2022-12-08T20:58:10.855Z,26.37
2022-12-08T21:08:12.460Z,26.90
2022-12-08T21:18:15.621Z,27.00
2022-12-08T21:28:17.244Z,25.92
2022-12-08T21:38:18.870Z,25.20
2022-12-08T21:48:20.602Z,25.40
2022-12-08T21:58:22.261Z,25.42
2022-12-08T22:08:24.091Z,25.67
2022-12-08T22:18:26.253Z,27.93
2022-12-08T22:28:31.835Z,27.23
2022-12-08T22:38:33.975Z,27.27
2022-12-08T22:48:35.809Z,28.50
2022-12-08T22:58:38.428Z,27.30
2022-12-08T23:08:40.168Z,28.80
2022-12-08T23:18:43.990Z,28.63
2022-12-08T23:28:45.747Z,34.07
2022-12-08T23:38:47.572Z,31.60
2022-12-08T23:48:50.232Z,30.47
2022-12-08T23:58:51.813Z,29.30
